Time;durP1;ratioP1;P1;durP2;ratioP2;P2;SDS_P1;SDS_P2;PMS_P1;PMS_P2;Temp;Humidity;BMP_temperature;BMP_pressure;BME280_temperature;BME280_humidity;BME280_pressure;Samples;Min_cycle;Max_cycle;Signal;HPM_P1;HPM_P2
2022/03/14 00:01:02;;;;;;;1.65;1.48;;;;;;;10.33;68.64;101580.84;5053066;28;20033;-76
2022/03/14 00:03:28;;;;;;;2.60;1.90;;;;;;;10.32;69.27;101584.34;5052862;28;20044;-76
2022/03/14 00:05:54;;;;;;;2.28;1.70;;;;;;;10.27;69.18;101578.34;5056914;28;20100;-76
2022/03/14 00:08:21;;;;;;;3.28;2.10;;;;;;;10.28;69.18;101590.47;5051968;28;20103;-76
2022/03/14 00:10:47;;;;;;;2.33;1.92;;;;;;;10.29;69.63;101592.19;5052792;28;20021;-76
2022/03/14 00:13:16;;;;;;;2.28;1.80;;;;;;;10.25;69.33;101598.28;5052360;28;20679;-76
2022/03/14 00:15:42;;;;;;;2.83;2.05;;;;;;;10.26;69.62;101597.44;5052836;28;20061;-76
2022/03/14 00:18:10;;;;;;;2.42;1.90;;;;;;;10.23;69.71;101602.63;5064749;28;20052;-76
2022/03/14 00:20:35;;;;;;;2.90;2.28;;;;;;;10.23;69.81;101607.84;5073585;28;20028;-76
2022/03/14 00:23:01;;;;;;;2.50;2.00;;;;;;;10.14;69.93;101595.78;5062950;28;20094;-76
2022/03/14 00:25:27;;;;;;;2.30;2.10;;;;;;;10.17;69.91;101607.91;5052264;28;20025;-76
2022/03/14 00:27:54;;;;;;;2.78;2.05;;;;;;;10.13;70.34;101611.41;5052760;28;20096;-76
2022/03/14 00:30:19;;;;;;;2.47;2.28;;;;;;;10.13;70.21;101614.03;5053031;28;20044;-76
2022/03/14 00:32:46;;;;;;;3.75;2.10;;;;;;;10.14;70.33;101623.59;5052347;28;20025;-76
2022/03/14 00:35:11;;;;;;;3.33;2.33;;;;;;;10.14;70.10;101619.25;5052438;28;20538;-76
2022/03/14 00:37:38;;;;;;;2.70;2.13;;;;;;;10.14;70.39;101626.19;5052299;28;20025;-76
2022/03/14 00:40:07;;;;;;;2.63;2.42;;;;;;;10.13;70.52;101633.13;5052411;28;20035;-76
2022/03/14 00:42:32;;;;;;;3.08;2.10;;;;;;;10.12;70.64;101635.75;5051709;28;20029;-76
2022/03/14 00:44:57;;;;;;;2.85;2.10;;;;;;;10.09;70.50;101632.28;5051965;28;20106;-77
2022/03/14 00:47:23;;;;;;;3.40;2.50;;;;;;;10.09;70.92;101637.50;5051578;28;20354;-76
2022/03/14 00:49:48;;;;;;;2.63;2.08;;;;;;;10.11;70.67;101639.25;5051951;28;20174;-76
2022/03/14 00:52:16;;;;;;;3.00;2.40;;;;;;;10.08;71.00;101640.13;5052007;28;20017;-76
2022/03/14 00:54:42;;;;;;;4.05;2.45;;;;;;;10.02;71.73;101654.06;5052001;28;20025;-76
2022/03/14 00:57:07;;;;;;;3.67;2.30;;;;;;;9.96;72.61;101656.72;5052305;28;20392;-76
2022/03/14 00:59:34;;;;;;;3.10;2.58;;;;;;;9.92;72.82;101652.41;5051381;28;20033;-76
2022/03/14 01:01:59;;;;;;;3.70;2.70;;;;;;;9.89;73.30;101649.84;5052103;28;20029;-76
2022/03/14 01:04:24;;;;;;;2.75;2.42;;;;;;;9.89;73.20;101660.25;5051794;28;20032;-76
2022/03/14 01:06:49;;;;;;;3.83;2.40;;;;;;;9.88;73.58;101662.88;5051391;28;20043;-76
2022/03/14 01:09:15;;;;;;;3.90;2.95;;;;;;;9.85;73.42;101661.16;5051772;28;20481;-76
2022/03/14 01:11:44;;;;;;;3.47;2.40;;;;;;;9.87;73.55;101667.19;5051458;28;20032;-76
2022/03/14 01:14:10;;;;;;;3.58;2.33;;;;;;;9.86;73.67;101668.09;5051477;28;20472;-76
2022/03/14 01:16:36;;;;;;;4.63;2.58;;;;;;;9.78;73.64;101659.47;5052285;28;20032;-76
2022/03/14 01:19:01;;;;;;;3.22;2.55;;;;;;;9.82;73.77;101669.00;5052831;28;20021;-76
2022/03/14 01:21:30;;;;;;;3.75;2.65;;;;;;;9.81;74.42;101672.47;5060921;28;20066;-76
2022/03/14 01:23:59;;;;;;;3.53;2.90;;;;;;;9.75;74.68;101675.13;5066362;28;20029;-76
2022/03/14 01:26:24;;;;;;;3.70;2.70;;;;;;;9.76;74.39;101684.66;5051342;28;20032;-76
2022/03/14 01:28:50;;;;;;;3.53;2.78;;;;;;;9.74;74.46;101687.25;5051260;28;20496;-76
2022/03/14 01:31:15;;;;;;;3.50;2.85;;;;;;;9.74;74.71;101695.06;5052039;28;20044;-77
2022/03/14 01:33:40;;;;;;;4.22;2.90;;;;;;;9.73;74.75;101693.34;5051182;28;20041;-76
2022/03/14 01:36:06;;;;;;;3.67;2.78;;;;;;;9.74;74.84;101696.81;5051651;28;20017;-76
2022/03/14 01:38:32;;;;;;;4.03;3.00;;;;;;;9.68;75.17;101692.53;5049752;28;20028;-77
2022/03/14 01:40:57;;;;;;;4.18;2.65;;;;;;;9.66;75.13;101694.25;5050305;28;20035;-77
2022/03/14 01:43:24;;;;;;;4.15;3.00;;;;;;;9.69;75.04;101690.78;5050870;28;20111;-76
2022/03/14 01:45:49;;;;;;;3.80;3.00;;;;;;;9.69;75.05;101693.38;5051213;28;20366;-76
2022/03/14 01:48:15;;;;;;;4.80;3.10;;;;;;;9.64;75.19;101688.19;5050819;28;20082;-76
2022/03/14 01:50:40;;;;;;;4.20;3.25;;;;;;;9.66;75.38;101694.25;5050925;28;20505;-77
2022/03/14 01:53:06;;;;;;;3.65;3.00;;;;;;;9.69;75.37;101703.81;5051521;28;20078;-77
2022/03/14 01:55:32;;;;;;;3.90;2.90;;;;;;;9.68;75.38;101702.94;5050824;28;20392;-76
2022/03/14 01:57:58;;;;;;;4.22;3.10;;;;;;;9.68;75.40;101697.72;5050386;28;20025;-76
2022/03/14 02:00:23;;;;;;;3.95;3.28;;;;;;;9.72;75.39;101709.00;5051117;28;20035;-77
2022/03/14 02:02:49;;;;;;;4.05;3.35;;;;;;;9.72;75.61;101709.84;5050815;28;20033;-76
2022/03/14 02:05:16;;;;;;;5.55;3.20;;;;;;;9.70;75.57;101702.91;5051261;28;20540;-76
2022/03/14 02:07:41;;;;;;;3.67;2.90;;;;;;;9.74;75.67;101713.28;5049846;28;20085;-76
2022/03/14 02:10:07;;;;;;;5.60;3.40;;;;;;;9.74;75.68;101718.50;5053431;28;20473;-76
2022/03/14 02:12:33;;;;;;;4.68;3.63;;;;;;;9.75;75.90;101719.41;5053842;28;20036;-76
2022/03/14 02:14:58;;;;;;;4.60;3.38;;;;;;;9.74;76.21;101726.31;5057710;28;20045;-76
2022/03/14 02:17:23;;;;;;;5.35;3.72;;;;;;;9.72;76.32;101733.28;5056799;28;20025;-76
2022/03/14 02:19:50;;;;;;;4.90;3.90;;;;;;;9.72;76.34;101735.03;5057572;28;20469;-76
2022/03/14 02:22:15;;;;;;;4.43;3.72;;;;;;;9.66;76.18;101725.50;5072685;27;20052;-76
2022/03/14 02:24:42;;;;;;;3.72;3.13;;;;;;;9.73;76.11;101735.00;5057197;28;20115;-76
2022/03/14 02:27:08;;;;;;;5.25;4.03;;;;;;;9.68;76.62;101739.41;5057851;28;20490;-77
2022/03/14 02:29:33;;;;;;;4.25;3.85;;;;;;;9.68;76.45;101728.97;5057413;28;20028;-76
2022/03/14 02:31:59;;;;;;;4.45;3.42;;;;;;;9.68;76.75;101733.28;5057040;28;20120;-77
2022/03/14 02:34:24;;;;;;;4.88;3.78;;;;;;;9.65;76.86;101736.81;5057832;28;20108;-76
2022/03/14 02:36:49;;;;;;;5.72;3.92;;;;;;;9.64;76.43;101744.59;5057123;28;20385;-76
2022/03/14 02:39:15;;;;;;;5.32;3.38;;;;;;;9.62;76.21;101734.22;5056757;28;20040;-76
2022/03/14 02:41:41;;;;;;;4.50;3.53;;;;;;;9.65;76.76;101743.75;5057504;28;20021;-76
2022/03/14 02:44:08;;;;;;;4.85;3.55;;;;;;;9.60;76.90;101749.81;5057787;28;20108;-76
2022/03/14 02:46:34;;;;;;;4.47;3.70;;;;;;;9.51;77.31;101744.66;5056555;28;20075;-76
2022/03/14 02:49:00;;;;;;;6.38;3.60;;;;;;;9.52;77.20;101750.75;5057348;28;20070;-76
2022/03/14 02:51:26;;;;;;;4.95;3.58;;;;;;;9.49;77.33;101742.97;5057532;28;20053;-76
2022/03/14 02:53:51;;;;;;;4.03;3.50;;;;;;;9.48;77.81;101757.72;5056408;28;20122;-76
2022/03/14 02:56:17;;;;;;;5.18;3.78;;;;;;;9.43;78.27;101763.81;5057182;28;20039;-76
2022/03/14 02:58:44;;;;;;;3.95;3.38;;;;;;;9.40;77.94;101772.47;5056905;28;20041;-76
2022/03/14 03:01:10;;;;;;;4.05;3.30;;;;;;;9.37;78.16;101783.75;5057046;28;20031;-76
2022/03/14 03:03:36;;;;;;;4.57;3.60;;;;;;;9.34;78.12;101780.31;5057687;28;20112;-76
2022/03/14 03:06:02;;;;;;;4.90;3.92;;;;;;;9.35;78.00;101788.13;5057711;28;20051;-76
2022/03/14 03:08:27;;;;;;;5.72;4.00;;;;;;;9.32;78.20;101793.34;5055904;28;20024;-76
2022/03/14 03:10:58;;;;;;;4.97;4.10;;;;;;;9.32;77.82;101792.47;5056858;28;20031;-76
2022/03/14 03:13:27;;;;;;;5.38;3.30;;;;;;;9.31;77.98;101802.00;5055341;28;20045;-76
2022/03/14 03:15:53;;;;;;;3.80;3.40;;;;;;;9.29;77.98;101805.50;5057290;28;20029;-76
2022/03/14 03:18:18;;;;;;;4.35;3.65;;;;;;;9.27;78.55;101815.03;5056241;28;20033;-76
2022/03/14 03:20:44;;;;;;;4.50;3.53;;;;;;;9.23;78.81;101818.53;5055002;28;20108;-76
2022/03/14 03:23:09;;;;;;;4.55;3.70;;;;;;;9.19;79.74;101824.56;5053815;28;20025;-76
2022/03/14 03:25:34;;;;;;;4.72;3.83;;;;;;;9.10;80.92;101822.88;5054224;28;20064;-76
2022/03/14 03:28:00;;;;;;;4.43;3.72;;;;;;;8.94;81.95;101832.44;5053291;28;20032;-76
2022/03/14 03:30:25;;;;;;;4.40;3.83;;;;;;;8.85;83.04;101843.69;5053443;28;20388;-76
2022/03/14 03:32:50;;;;;;;4.22;3.75;;;;;;;8.76;82.75;101851.50;5053566;28;20041;-76
2022/03/14 03:35:16;;;;;;;4.70;4.00;;;;;;;8.75;83.70;101856.72;5053266;28;20115;-76
2022/03/14 03:37:41;;;;;;;5.15;4.00;;;;;;;8.76;82.98;101864.50;5053376;28;20033;-76
2022/03/14 03:40:07;;;;;;;4.82;3.95;;;;;;;8.65;83.05;101853.22;5053937;28;20090;-76
2022/03/14 03:42:32;;;;;;;4.78;4.00;;;;;;;8.80;82.88;101870.59;5053140;28;20116;-76
2022/03/14 03:44:57;;;;;;;5.05;3.88;;;;;;;8.82;82.59;101879.22;5053586;28;20102;-76
2022/03/14 03:47:24;;;;;;;5.20;3.90;;;;;;;8.83;83.01;101884.44;5052880;28;20036;-77
2022/03/14 03:49:50;;;;;;;4.90;4.22;;;;;;;8.78;84.20;101893.09;5052535;28;20040;-76
2022/03/14 03:52:15;;;;;;;6.38;4.85;;;;;;;8.61;86.45;101896.56;5053390;28;20040;-76
2022/03/14 03:54:40;;;;;;;6.18;5.25;;;;;;;8.51;86.93;101892.22;5053693;28;20025;-76
2022/03/14 03:57:06;;;;;;;6.40;5.40;;;;;;;8.51;86.97;101904.34;5053440;28;20025;-76
2022/03/14 03:59:31;;;;;;;7.20;5.47;;;;;;;8.50;87.11;101906.09;5053315;28;20481;-76
2022/03/14 04:01:57;;;;;;;5.80;5.20;;;;;;;8.54;87.18;101909.56;5053338;28;20032;-76
2022/03/14 04:04:23;;;;;;;5.82;4.93;;;;;;;8.52;87.40;101919.06;5052543;28;20395;-76
2022/03/14 04:06:49;;;;;;;7.75;5.25;;;;;;;8.53;87.15;101913.84;5052935;28;20029;-76
2022/03/14 04:09:14;;;;;;;7.00;5.30;;;;;;;8.53;87.56;101920.78;5052999;28;20415;-76
2022/03/14 04:11:42;;;;;;;7.55;4.90;;;;;;;8.48;88.46;101930.31;5052525;28;20025;-76
2022/03/14 04:14:09;;;;;;;8.75;5.60;;;;;;;8.33;89.34;101931.97;5053036;28;20037;-76
2022/03/14 04:16:34;;;;;;;6.63;5.45;;;;;;;8.22;91.12;101933.66;5052611;28;20113;-76
2022/03/14 04:18:59;;;;;;;9.18;6.40;;;;;;;8.22;90.99;101941.47;5052648;28;20111;-76
2022/03/14 04:21:25;;;;;;;8.60;5.78;;;;;;;8.24;90.75;101946.66;5053009;28;20029;-77
2022/03/14 04:23:50;;;;;;;7.72;5.60;;;;;;;8.27;90.83;101951.84;5051970;28;20036;-76
2022/03/14 04:26:15;;;;;;;8.38;6.07;;;;;;;8.27;90.77;101957.91;5053321;28;20028;-76
2022/03/14 04:28:41;;;;;;;8.07;6.43;;;;;;;8.28;90.80;101958.81;5052531;28;20366;-76
2022/03/14 04:31:08;;;;;;;8.48;6.45;;;;;;;8.29;90.52;101968.34;5052702;28;20448;-76
2022/03/14 04:33:33;;;;;;;8.77;6.80;;;;;;;8.28;90.44;101966.59;5052004;28;20037;-76
2022/03/14 04:35:59;;;;;;;10.13;6.90;;;;;;;8.31;89.99;101974.41;5052139;28;20037;-76
2022/03/14 04:38:25;;;;;;;7.68;6.50;;;;;;;8.27;89.78;101968.31;5051837;28;20020;-76
2022/03/14 04:40:50;;;;;;;9.13;6.60;;;;;;;8.23;90.00;101973.50;5052811;28;20484;-76
2022/03/14 04:43:16;;;;;;;11.07;7.15;;;;;;;8.19;90.38;101977.81;5052001;28;20028;-76
2022/03/14 04:45:41;;;;;;;10.30;6.97;;;;;;;8.13;90.51;101975.19;5051806;28;20090;-76
2022/03/14 04:48:07;;;;;;;8.32;7.13;;;;;;;8.13;90.73;101980.38;5052533;28;20445;-76
2022/03/14 04:50:35;;;;;;;10.00;7.43;;;;;;;8.08;90.59;101982.09;5051823;28;20049;-76
2022/03/14 04:53:01;;;;;;;9.18;7.85;;;;;;;8.04;90.93;101986.38;5051923;28;20396;-76
2022/03/14 04:55:26;;;;;;;11.85;7.32;;;;;;;8.04;90.63;101994.19;5052710;28;20021;-76
2022/03/14 04:57:51;;;;;;;9.95;7.90;;;;;;;8.01;90.72;101996.78;5051708;28;20041;-76
2022/03/14 05:00:17;;;;;;;10.13;7.78;;;;;;;7.97;90.51;102001.06;5051333;28;20036;-76
2022/03/14 05:02:42;;;;;;;11.43;7.95;;;;;;;7.97;90.88;102005.41;5052361;28;20028;-76
2022/03/14 05:05:11;;;;;;;10.00;7.22;;;;;;;7.98;90.61;102013.22;5052303;28;20025;-76
2022/03/14 05:07:37;;;;;;;10.00;7.65;;;;;;;7.95;90.82;102020.13;5051602;28;20028;-76
2022/03/14 05:10:03;;;;;;;12.02;7.95;;;;;;;7.94;90.59;102020.97;5051501;28;20071;-76
2022/03/14 05:12:31;;;;;;;13.15;8.43;;;;;;;7.95;90.80;102023.59;5058801;28;20024;-77
2022/03/14 05:14:57;;;;;;;11.45;8.35;;;;;;;7.95;90.50;102039.16;5071701;28;20514;-76
2022/03/14 05:17:22;;;;;;;10.77;8.55;;;;;;;7.98;89.92;102038.31;5067446;28;20078;-76
2022/03/14 05:19:47;;;;;;;12.13;9.13;;;;;;;7.97;90.45;102047.81;5050636;28;20060;-77
2022/03/14 05:22:13;;;;;;;13.38;9.35;;;;;;;7.99;90.78;102050.44;5051605;28;20074;-76
2022/03/14 05:24:38;;;;;;;12.75;9.23;;;;;;;8.01;90.18;102053.91;5051455;28;20120;-76
2022/03/14 05:27:03;;;;;;;16.30;10.35;;;;;;;8.02;90.17;102055.66;5051540;28;20461;-76
2022/03/14 05:29:29;;;;;;;16.85;10.40;;;;;;;7.96;89.69;102048.69;5051771;28;20056;-76
2022/03/14 05:31:54;;;;;;;16.90;10.30;;;;;;;8.05;90.14;102058.28;5050881;28;20032;-76
2022/03/14 05:34:19;;;;;;;16.80;10.27;;;;;;;8.06;89.75;102069.53;5050553;28;20033;-76
2022/03/14 05:36:45;;;;;;;15.70;11.00;;;;;;;8.06;89.98;102067.78;5051256;28;20028;-76
2022/03/14 05:39:10;;;;;;;18.88;10.65;;;;;;;8.03;89.82;102072.09;5051176;28;20025;-76
2022/03/14 05:41:36;;;;;;;17.75;11.80;;;;;;;8.05;90.33;102073.00;5051150;28;20021;-76
2022/03/14 05:44:01;;;;;;;16.65;10.52;;;;;;;8.04;89.68;102079.88;5050833;28;20033;-76
2022/03/14 05:46:26;;;;;;;18.00;10.95;;;;;;;8.05;89.86;102084.25;5051507;28;20108;-76
2022/03/14 05:48:51;;;;;;;16.92;11.18;;;;;;;8.07;90.02;102099.81;5050356;28;20037;-76
2022/03/14 05:51:17;;;;;;;17.35;11.43;;;;;;;8.09;90.10;102092.91;5051131;28;20054;-76
2022/03/14 05:53:42;;;;;;;16.20;10.82;;;;;;;8.08;89.47;102092.06;5050950;28;20503;-76
2022/03/14 05:56:07;;;;;;;21.65;11.55;;;;;;;8.12;89.58;102099.00;5051200;28;20025;-76
2022/03/14 05:58:33;;;;;;;17.90;11.10;;;;;;;8.15;89.53;102103.34;5051114;28;20530;-76
2022/03/14 06:00:59;;;;;;;19.55;11.27;;;;;;;8.15;89.48;102111.16;5051092;28;20033;-76
2022/03/14 06:03:24;;;;;;;19.02;11.82;;;;;;;8.14;89.78;102110.28;5050523;28;20032;-76
2022/03/14 06:05:50;;;;;;;15.00;10.80;;;;;;;8.15;89.58;102117.22;5051379;28;20037;-76
2022/03/14 06:08:16;;;;;;;19.15;12.13;;;;;;;8.15;89.67;102124.13;5050852;28;20397;-76
2022/03/14 06:10:43;;;;;;;16.38;11.85;;;;;;;8.07;89.28;102121.47;5050704;28;20029;-76
2022/03/14 06:13:08;;;;;;;19.70;12.40;;;;;;;8.16;89.62;102134.53;5050943;28;20494;-76
2022/03/14 06:15:34;;;;;;;18.48;11.73;;;;;;;8.17;89.84;102128.50;5051416;28;20508;-76
2022/03/14 06:17:59;;;;;;;18.35;12.90;;;;;;;8.25;89.41;102141.53;5050366;28;20051;-76
2022/03/14 06:20:24;;;;;;;18.23;13.02;;;;;;;8.28;89.09;102140.69;5050867;28;20499;-77
2022/03/14 06:22:50;;;;;;;20.85;13.35;;;;;;;8.32;88.85;102142.44;5050681;28;20033;-76
2022/03/14 06:25:18;;;;;;;18.38;13.15;;;;;;;8.33;89.01;102141.56;5050642;28;20044;-76
2022/03/14 06:27:45;;;;;;;18.88;12.65;;;;;;;8.31;88.96;102141.56;5050991;28;20035;-76
2022/03/14 06:30:11;;;;;;;19.80;14.10;;;;;;;8.36;88.69;102152.84;5050329;28;20033;-76
2022/03/14 06:32:38;;;;;;;20.67;13.60;;;;;;;8.34;88.89;102158.91;5050832;28;20035;-76
2022/03/14 06:35:06;;;;;;;22.60;14.68;;;;;;;8.36;88.97;102165.84;5050797;28;20116;-76
2022/03/14 06:37:31;;;;;;;21.42;14.10;;;;;;;8.36;89.23;102165.84;5049894;28;20029;-76
2022/03/14 06:39:56;;;;;;;24.33;14.48;;;;;;;8.35;89.12;102164.09;5050824;28;20278;-76
2022/03/14 06:42:23;;;;;;;23.75;14.07;;;;;;;8.38;88.92;102171.97;5050152;28;20075;-76
2022/03/14 06:44:49;;;;;;;25.27;14.45;;;;;;;8.37;89.77;102184.88;5050476;28;20365;-76
2022/03/14 06:47:16;;;;;;;20.33;14.45;;;;;;;8.36;89.07;102175.38;5050375;28;20071;-76
2022/03/14 06:49:44;;;;;;;19.63;13.80;;;;;;;8.33;89.41;102181.41;5050289;28;20037;-76
2022/03/14 06:52:10;;;;;;;21.38;14.20;;;;;;;8.33;89.23;102184.00;5050322;28;20388;-76
2022/03/14 06:54:35;;;;;;;20.20;13.95;;;;;;;8.34;89.56;102187.50;5034878;28;20017;-76
2022/03/14 06:57:00;;;;;;;24.35;15.45;;;;;;;8.41;88.92;102194.50;5053877;28;20079;-76
2022/03/14 06:59:25;;;;;;;23.95;14.35;;;;;;;8.42;88.47;102193.63;5053868;28;20044;-76
2022/03/14 07:01:51;;;;;;;18.70;13.40;;;;;;;8.50;88.56;102197.16;5054074;28;20025;-76
2022/03/14 07:04:16;;;;;;;22.60;12.80;;;;;;;8.58;88.12;102203.28;5054211;28;20029;-76
2022/03/14 07:06:42;;;;;;;18.77;12.05;;;;;;;8.63;87.27;102195.50;5053954;28;20607;-76
2022/03/14 07:09:09;;;;;;;21.20;13.90;;;;;;;8.63;87.51;102208.50;5054079;28;20094;-76
2022/03/14 07:11:34;;;;;;;20.25;12.80;;;;;;;8.65;87.09;102206.78;5057083;28;20020;-76
2022/03/14 07:14:00;;;;;;;19.27;13.77;;;;;;;8.71;87.03;102211.16;5063314;28;20035;-76
2022/03/14 07:16:25;;;;;;;20.17;13.23;;;;;;;8.74;86.26;102208.59;5053635;28;20424;-76
2022/03/14 07:18:51;;;;;;;19.70;12.32;;;;;;;8.81;86.52;102211.22;5054149;28;20045;-76
2022/03/14 07:21:17;;;;;;;17.02;12.88;;;;;;;8.84;86.11;102215.56;5064359;28;20159;-76
2022/03/14 07:23:43;;;;;;;22.38;13.98;;;;;;;8.89;85.48;102216.44;5053512;28;20053;-76
2022/03/14 07:26:08;;;;;;;22.27;13.25;;;;;;;8.89;85.54;102217.34;5053909;28;20053;-76
2022/03/14 07:28:34;;;;;;;18.58;12.68;;;;;;;8.94;85.63;102216.50;5053465;28;20062;-76
2022/03/14 07:30:59;;;;;;;22.27;13.05;;;;;;;8.96;84.80;102226.06;5053702;28;20507;-76
2022/03/14 07:33:25;;;;;;;22.70;13.35;;;;;;;8.98;85.00;102228.63;5053584;28;20029;-76
2022/03/14 07:35:50;;;;;;;23.73;14.13;;;;;;;9.00;85.05;102237.34;5053341;28;20061;-76
2022/03/14 07:38:16;;;;;;;23.80;14.30;;;;;;;8.99;85.25;102219.97;5053383;28;20075;-76
2022/03/14 07:40:42;;;;;;;21.00;12.65;;;;;;;9.10;84.40;102224.38;5052459;28;20024;-76
2022/03/14 07:43:07;;;;;;;26.38;13.50;;;;;;;9.13;83.96;102229.59;5058349;28;20025;-76
2022/03/14 07:45:32;;;;;;;20.52;13.93;;;;;;;9.22;83.78;102227.88;5053410;28;20453;-76
2022/03/14 07:47:59;;;;;;;19.52;13.63;;;;;;;9.34;83.56;102227.94;5053667;28;20437;-76
2022/03/14 07:50:26;;;;;;;25.23;14.10;;;;;;;9.41;83.10;102234.03;5050608;28;20041;-76
2022/03/14 07:52:51;;;;;;;25.98;14.02;;;;;;;9.48;82.51;102241.00;5052391;28;20124;-77
2022/03/14 07:55:16;;;;;;;24.05;13.65;;;;;;;9.46;82.30;102248.81;5052646;28;20103;-76
2022/03/14 07:57:43;;;;;;;25.42;13.80;;;;;;;9.37;82.02;102235.75;5042709;28;20053;-76
2022/03/14 08:00:14;;;;;;;22.95;14.68;;;;;;;9.48;82.81;102246.19;5038623;28;20074;-77
2022/03/14 08:02:39;;;;;;;24.15;14.40;;;;;;;9.50;82.39;102260.97;5054418;28;20025;-76
2022/03/14 08:05:07;;;;;;;22.40;14.23;;;;;;;9.47;82.25;102257.50;5053719;28;20025;-76
2022/03/14 08:07:33;;;;;;;22.63;15.20;;;;;;;9.43;82.57;102263.56;5054248;28;20029;-76
2022/03/14 08:09:58;;;;;;;20.23;14.48;;;;;;;9.41;82.10;102266.13;5073002;28;20470;-76
2022/03/14 08:12:24;;;;;;;25.20;14.02;;;;;;;9.38;82.01;102277.44;5073100;28;20472;-76
2022/03/14 08:14:50;;;;;;;22.85;14.70;;;;;;;9.39;82.25;102278.28;5073578;28;20060;-76
2022/03/14 08:17:18;;;;;;;22.08;14.23;;;;;;;9.41;82.62;102281.75;5056485;28;20032;-76
2022/03/14 08:19:43;;;;;;;24.50;14.60;;;;;;;9.40;81.55;102269.59;5053000;28;20032;-76
2022/03/14 08:22:09;;;;;;;23.38;14.48;;;;;;;9.48;82.08;102293.06;5062374;28;20388;-76
2022/03/14 08:24:34;;;;;;;20.92;13.90;;;;;;;9.50;82.13;102287.00;5072874;28;20089;-76
2022/03/14 08:27:01;;;;;;;21.90;14.50;;;;;;;9.57;81.53;102299.16;5066381;28;20028;-76
2022/03/14 08:29:26;;;;;;;24.42;14.63;;;;;;;9.59;81.07;102294.00;5061250;28;20104;-76
2022/03/14 08:31:51;;;;;;;27.15;14.13;;;;;;;9.64;81.59;102288.78;5056322;28;20116;-76
2022/03/14 08:34:17;;;;;;;22.00;12.80;;;;;;;9.63;80.69;102307.88;5052924;28;20107;-76
2022/03/14 08:36:42;;;;;;;21.90;12.93;;;;;;;9.57;80.93;102288.75;5051935;28;20033;-76
2022/03/14 08:39:08;;;;;;;23.45;12.23;;;;;;;9.73;80.18;102301.84;5053181;28;20047;-76
2022/03/14 08:41:36;;;;;;;20.13;11.82;;;;;;;9.81;79.76;102295.81;5060944;28;20037;-76
2022/03/14 08:44:06;;;;;;;20.38;12.77;;;;;;;9.82;80.21;102307.09;5055056;28;20029;-76
2022/03/14 08:46:32;;;;;;;21.83;12.43;;;;;;;9.92;79.24;102318.41;5052631;28;20527;-76
2022/03/14 08:48:58;;;;;;;19.08;11.98;;;;;;;9.96;78.85;102318.41;5054658;28;20077;-75
2022/03/14 08:51:24;;;;;;;19.98;12.82;;;;;;;10.09;79.09;102320.16;5056769;28;20066;-76
2022/03/14 08:53:49;;;;;;;20.35;12.07;;;;;;;10.22;78.05;102330.63;5054977;28;20048;-76
2022/03/14 08:56:15;;;;;;;17.80;11.95;;;;;;;10.28;77.75;102341.09;5072241;28;20472;-75
2022/03/14 08:58:40;;;;;;;20.65;11.13;;;;;;;10.32;77.76;102342.84;5065788;28;20021;-75
2022/03/14 09:01:07;;;;;;;19.60;11.40;;;;;;;10.31;76.75;102339.38;5053778;28;20029;-75
2022/03/14 09:03:32;;;;;;;18.02;11.10;;;;;;;10.26;76.34;102338.47;5056816;28;20053;-77
2022/03/14 09:05:58;;;;;;;17.92;10.93;;;;;;;10.21;76.49;102354.97;5063767;28;20068;-77
2022/03/14 09:08:24;;;;;;;17.60;10.30;;;;;;;10.42;77.04;102352.41;5068426;28;20024;-77
2022/03/14 09:10:50;;;;;;;17.45;10.45;;;;;;;10.57;76.89;102342.88;5051996;28;20032;-77
2022/03/14 09:13:16;;;;;;;18.08;10.30;;;;;;;10.86;75.61;102358.53;5051972;28;20029;-76
2022/03/14 09:15:41;;;;;;;17.60;10.77;;;;;;;10.90;74.57;102361.13;5070245;28;20036;-76
2022/03/14 09:18:07;;;;;;;19.80;10.50;;;;;;;11.06;74.26;102356.75;5063332;28;20021;-77
2022/03/14 09:20:38;;;;;;;18.17;11.07;;;;;;;11.14;72.81;102365.44;5050907;28;20032;-77
2022/03/14 09:23:04;;;;;;;19.05;10.43;;;;;;;11.34;73.48;102373.22;5052199;28;20032;-76
2022/03/14 09:25:29;;;;;;;21.80;10.90;;;;;;;11.44;72.36;102367.13;5051879;28;20388;-77
2022/03/14 09:27:55;;;;;;;18.20;11.20;;;;;;;11.55;71.45;102367.09;5051702;28;20219;-77
2022/03/14 09:30:21;;;;;;;17.92;10.15;;;;;;;11.61;71.66;102363.59;5051782;28;20372;-77
2022/03/14 09:32:47;;;;;;;16.33;10.15;;;;;;;11.97;70.32;102364.31;5052078;28;20472;-76
2022/03/14 09:35:13;;;;;;;16.55;9.48;;;;;;;12.11;68.74;102368.63;5051419;28;20037;-76
2022/03/14 09:37:40;;;;;;;17.70;9.27;;;;;;;12.04;68.62;102377.38;5051619;28;20530;-75
2022/03/14 09:40:07;;;;;;;19.30;9.68;;;;;;;11.83;68.39;102380.03;5051695;28;20064;-76
2022/03/14 09:42:38;;;;;;;14.32;9.98;;;;;;;11.83;68.62;102390.50;5061705;28;20017;-76
2022/03/14 09:45:05;;;;;;;18.45;9.27;;;;;;;11.83;68.71;102391.34;5052745;28;20036;-75
2022/03/14 09:47:37;;;;;;;17.83;10.02;;;;;;;11.90;68.74;102400.97;5053500;28;20435;-76
2022/03/14 09:50:07;;;;;;;17.92;9.38;;;;;;;12.06;69.07;102399.13;5047353;28;20040;-75
2022/03/14 09:52:35;;;;;;;18.05;9.48;;;;;;;12.13;67.47;102411.31;5051421;28;20124;-76
2022/03/14 09:55:00;;;;;;;17.48;9.45;;;;;;;12.20;66.71;102417.38;5054643;28;20025;-76
2022/03/14 09:57:26;;;;;;;14.23;9.15;;;;;;;12.26;67.02;102421.69;5061529;28;20127;-75
2022/03/14 09:59:53;;;;;;;17.00;8.93;;;;;;;12.28;66.25;102435.66;5059174;28;20032;-75
2022/03/14 10:02:18;;;;;;;12.52;8.95;;;;;;;12.25;65.86;102436.53;5062640;28;20033;-75
2022/03/14 10:04:44;;;;;;;17.55;9.20;;;;;;;11.88;66.45;102438.44;5062603;28;20369;-75
2022/03/14 10:07:09;;;;;;;17.48;9.20;;;;;;;11.68;67.58;102448.91;5051636;28;20041;-75
2022/03/14 10:09:35;;;;;;;16.20;9.32;;;;;;;11.43;68.78;102446.34;5053742;28;20442;-75
2022/03/14 10:12:00;;;;;;;19.58;9.48;;;;;;;11.28;69.46;102448.97;5059198;28;20021;-75
2022/03/14 10:14:25;;;;;;;17.70;9.95;;;;;;;11.21;70.70;102461.13;5051574;28;20029;-75
2022/03/14 10:16:54;;;;;;;16.55;8.23;;;;;;;11.23;70.27;102458.53;5050996;28;20480;-75
2022/03/14 10:19:20;;;;;;;12.75;8.18;;;;;;;11.41;69.86;102455.94;5051146;28;20037;-75
2022/03/14 10:21:46;;;;;;;12.65;7.95;;;;;;;11.65;69.00;102451.53;5051271;28;20028;-75
2022/03/14 10:24:13;;;;;;;13.43;8.25;;;;;;;11.72;68.42;102455.88;5051009;28;20036;-75
2022/03/14 10:26:44;;;;;;;11.05;7.60;;;;;;;11.82;67.90;102462.81;5055125;28;20032;-75
2022/03/14 10:29:12;;;;;;;14.82;8.25;;;;;;;11.82;67.21;102462.81;5051019;28;20025;-75
2022/03/14 10:31:40;;;;;;;17.38;7.68;;;;;;;11.83;66.67;102479.34;5057129;28;20531;-75
2022/03/14 10:34:10;;;;;;;15.40;7.13;;;;;;;11.78;67.04;102471.53;5056135;28;20033;-75
2022/03/14 10:36:42;;;;;;;12.30;8.52;;;;;;;11.81;66.65;102473.28;5055191;28;20021;-74
2022/03/14 10:39:19;;;;;;;15.40;8.32;;;;;;;11.87;66.53;102474.16;5071660;28;20174;-75
2022/03/14 10:41:46;;;;;;;13.75;7.55;;;;;;;11.92;66.31;102477.59;5075038;28;20048;-75
2022/03/14 10:44:22;;;;;;;14.98;8.35;;;;;;;12.35;66.65;102489.66;5068852;28;20029;-76
2022/03/14 10:46:47;;;;;;;12.02;7.55;;;;;;;12.44;64.71;102486.13;5054586;28;20025;-75
2022/03/14 10:49:15;;;;;;;13.00;7.40;;;;;;;12.52;64.91;102492.19;5054582;28;20095;-75
2022/03/14 10:51:54;;;;;;;13.45;8.07;;;;;;;12.36;65.24;102500.13;5054612;28;20025;-75
2022/03/14 10:54:19;;;;;;;12.70;8.20;;;;;;;12.15;65.15;102498.44;5054880;28;20025;-75
2022/03/14 10:57:12;;;;;;;13.55;7.70;;;;;;;11.93;65.85;102500.28;5054510;28;20021;-75
2022/03/14 10:59:42;;;;;;;14.38;7.45;;;;;;;11.75;66.56;102508.13;5044431;28;20385;-76
2022/03/14 11:02:14;;;;;;;16.63;7.80;;;;;;;11.67;66.47;102510.75;5055020;28;20174;-75
2022/03/14 11:04:57;;;;;;;13.13;7.22;;;;;;;11.58;67.53;102510.75;5054004;28;20036;-76
2022/03/14 11:07:32;;;;;;;15.73;7.57;;;;;;;11.46;67.15;102510.75;5056038;28;20032;-76
2022/03/14 11:09:59;;;;;;;11.63;7.15;;;;;;;11.46;67.41;102509.00;5054575;28;20029;-76
2022/03/14 11:12:28;;;;;;;14.00;7.32;;;;;;;11.73;67.11;102495.03;5054189;28;20044;-76
2022/03/14 11:14:54;;;;;;;13.30;6.88;;;;;;;11.98;65.98;102499.38;5054405;28;20021;-75
2022/03/14 11:17:27;;;;;;;13.80;6.57;;;;;;;12.21;65.00;102501.94;5055583;28;20134;-75
2022/03/14 11:19:53;;;;;;;13.55;5.63;;;;;;;12.23;62.20;102502.75;5053582;28;20028;-75